createdAt,value
2019-05-25T00:01:23.399Z,5.43
2019-05-25T00:03:50.409Z,6.50
2019-05-25T00:06:17.161Z,6.50
2019-05-25T00:08:45.449Z,9.47
2019-05-25T00:11:12.257Z,4.90
2019-05-25T00:13:38.941Z,8.23
2019-05-25T00:16:05.630Z,4.53
2019-05-25T00:18:32.208Z,5.50
2019-05-25T00:20:59.068Z,12.43
2019-05-25T00:23:25.772Z,5.90
2019-05-25T00:25:52.688Z,10.13
2019-05-25T00:28:20.592Z,4.80
2019-05-25T00:30:47.475Z,6.70
2019-05-25T00:33:14.161Z,7.77
2019-05-25T00:35:40.845Z,5.83
2019-05-25T00:38:07.546Z,6.60
2019-05-25T00:40:34.139Z,5.53
2019-05-25T00:43:01.904Z,7.80
2019-05-25T00:45:28.517Z,7.77
2019-05-25T00:47:55.139Z,14.20
2019-05-25T00:50:21.795Z,4.50
2019-05-25T00:52:48.380Z,5.40
2019-05-25T00:55:15.010Z,5.80
2019-05-25T00:57:41.854Z,5.63
2019-05-25T01:00:09.433Z,8.57
2019-05-25T01:02:37.005Z,11.00
2019-05-25T01:05:03.959Z,6.70
2019-05-25T01:07:30.660Z,8.30
2019-05-25T01:09:57.303Z,5.27
2019-05-25T01:12:24.185Z,8.63
2019-05-25T01:14:50.768Z,8.13
2019-05-25T01:17:17.624Z,8.00
2019-05-25T01:19:44.249Z,10.63
2019-05-25T01:22:11.204Z,7.23
2019-05-25T01:24:44.224Z,7.10
2019-05-25T01:27:06.468Z,5.00
2019-05-25T01:29:33.081Z,6.87
2019-05-25T01:31:59.714Z,5.17
2019-05-25T01:34:26.392Z,6.20
2019-05-25T01:36:52.981Z,6.70
2019-05-25T01:39:19.613Z,6.37
2019-05-25T01:41:46.278Z,7.33
2019-05-25T01:44:12.992Z,9.87
2019-05-25T01:46:39.632Z,5.13
2019-05-25T01:49:06.243Z,7.37
2019-05-25T01:51:32.842Z,4.10
2019-05-25T01:53:59.782Z,6.13
2019-05-25T01:56:26.465Z,6.30
2019-05-25T01:58:53.255Z,5.13
2019-05-25T02:01:19.921Z,7.03
2019-05-25T02:03:46.639Z,6.70
2019-05-25T02:06:13.360Z,6.27
2019-05-25T02:08:39.991Z,7.53
2019-05-25T02:11:08.813Z,5.27
2019-05-25T02:13:35.952Z,8.17
2019-05-25T02:16:02.779Z,9.37
2019-05-25T02:18:29.482Z,7.20
2019-05-25T02:20:56.363Z,7.37
2019-05-25T02:23:23.241Z,6.60
2019-05-25T02:25:49.891Z,8.67
2019-05-25T02:28:16.591Z,5.60
2019-05-25T02:30:43.335Z,11.73
2019-05-25T02:33:09.977Z,10.70
2019-05-25T02:35:36.600Z,10.47
2019-05-25T02:38:03.305Z,6.43
2019-05-25T02:40:30.047Z,7.33
2019-05-25T02:42:56.940Z,5.30
2019-05-25T02:45:23.693Z,9.80
2019-05-25T02:47:50.331Z,8.80
2019-05-25T02:50:17.306Z,6.10
2019-05-25T02:52:44.018Z,8.63
2019-05-25T02:55:11.850Z,10.53
2019-05-25T02:57:38.738Z,6.60
2019-05-25T03:00:06.317Z,7.67
2019-05-25T03:02:33.120Z,8.23
2019-05-25T03:04:59.829Z,9.10
2019-05-25T03:07:27.377Z,7.97
2019-05-25T03:09:55.957Z,11.53
2019-05-25T03:12:24.125Z,7.17
2019-05-25T03:14:50.700Z,8.60
2019-05-25T03:17:17.311Z,8.60
2019-05-25T03:19:44.013Z,10.33
2019-05-25T03:22:10.745Z,9.60
2019-05-25T03:24:37.359Z,10.83
2019-05-25T03:27:03.955Z,10.10
2019-05-25T03:29:30.625Z,12.93
2019-05-25T03:31:57.271Z,6.90
2019-05-25T03:34:24.059Z,7.87
2019-05-25T03:36:50.690Z,8.10
2019-05-25T03:39:17.425Z,8.30
2019-05-25T03:41:44.351Z,9.50
2019-05-25T03:44:10.924Z,9.43
2019-05-25T03:46:37.824Z,10.03
2019-05-25T03:49:04.597Z,6.37
2019-05-25T03:51:31.261Z,5.60
2019-05-25T03:53:58.112Z,7.67
2019-05-25T03:56:24.857Z,5.57
2019-05-25T03:58:51.539Z,4.57
2019-05-25T04:01:18.296Z,7.20
2019-05-25T04:03:44.899Z,8.73
2019-05-25T04:06:11.635Z,7.87
2019-05-25T04:08:38.512Z,7.87
2019-05-25T04:11:05.182Z,5.10
2019-05-25T04:13:31.921Z,7.63
2019-05-25T04:16:00.507Z,7.43
2019-05-25T04:18:27.982Z,7.00
2019-05-25T04:20:54.627Z,7.27
2019-05-25T04:23:21.365Z,8.40
2019-05-25T04:25:48.161Z,6.97
2019-05-25T04:28:14.792Z,4.83
2019-05-25T04:30:41.575Z,7.20
2019-05-25T04:33:08.177Z,8.03
2019-05-25T04:35:35.075Z,5.43
2019-05-25T04:38:01.692Z,5.57
2019-05-25T04:40:28.418Z,5.73
2019-05-25T04:42:55.132Z,7.50
2019-05-25T04:45:21.795Z,7.20
2019-05-25T04:47:48.380Z,4.40
2019-05-25T04:50:14.964Z,4.50
2019-05-25T04:52:41.873Z,5.30
2019-05-25T04:55:08.852Z,5.03
2019-05-25T04:57:36.566Z,4.77
2019-05-25T05:00:04.464Z,4.57
2019-05-25T05:02:31.048Z,4.90
2019-05-25T05:04:57.628Z,4.17
2019-05-25T05:07:24.231Z,4.60
2019-05-25T05:10:02.178Z,5.20
2019-05-25T05:12:19.335Z,4.87
2019-05-25T05:14:46.043Z,5.83
2019-05-25T05:17:12.628Z,7.03
2019-05-25T05:19:39.210Z,3.60
2019-05-25T05:22:06.182Z,4.37
2019-05-25T05:24:32.976Z,3.30
2019-05-25T05:26:59.772Z,2.53
2019-05-25T05:29:26.390Z,6.70
2019-05-25T05:31:53.145Z,9.73
2019-05-25T05:34:19.756Z,9.80
2019-05-25T05:36:47.639Z,4.10
2019-05-25T05:39:14.577Z,2.43
2019-05-25T05:41:41.191Z,4.23
2019-05-25T05:44:07.939Z,5.00
2019-05-25T05:46:36.001Z,4.60
2019-05-25T05:49:03.343Z,5.70
2019-05-25T05:51:33.864Z,4.33
2019-05-25T05:54:02.355Z,6.63
2019-05-25T05:56:29.019Z,5.03
2019-05-25T05:58:56.058Z,5.83
2019-05-25T06:01:22.710Z,4.97
2019-05-25T06:03:49.280Z,9.27
2019-05-25T06:06:16.210Z,5.57
2019-05-25T06:08:42.838Z,17.73
2019-05-25T06:11:09.468Z,5.40
2019-05-25T06:13:36.093Z,7.10
2019-05-25T06:16:02.705Z,4.77
2019-05-25T06:18:29.283Z,6.73
2019-05-25T06:20:55.896Z,4.97
2019-05-25T06:23:22.522Z,7.00
2019-05-25T06:25:49.174Z,4.97
2019-05-25T06:28:18.289Z,6.80
2019-05-25T06:30:44.664Z,10.07
2019-05-25T06:33:11.252Z,4.53
2019-05-25T06:35:37.847Z,4.33
2019-05-25T06:38:04.809Z,6.77
2019-05-25T06:40:31.473Z,6.00
2019-05-25T06:42:58.407Z,4.90
2019-05-25T06:45:25.017Z,5.33
2019-05-25T06:47:52.009Z,3.13
2019-05-25T06:50:18.795Z,11.00
2019-05-25T06:52:45.375Z,3.90
2019-05-25T06:55:12.075Z,4.70
2019-05-25T06:57:43.729Z,5.27
2019-05-25T07:00:08.696Z,6.37
2019-05-25T07:02:35.533Z,4.77
2019-05-25T07:05:02.565Z,5.17
2019-05-25T07:07:29.156Z,8.77
2019-05-25T07:09:55.756Z,4.83
2019-05-25T07:12:22.403Z,6.17
2019-05-25T07:14:49.325Z,4.70
2019-05-25T07:17:18.020Z,8.73
2019-05-25T07:19:44.952Z,7.73
2019-05-25T07:22:11.776Z,8.97
2019-05-25T07:24:38.456Z,4.70
2019-05-25T07:27:05.072Z,8.50
2019-05-25T07:29:31.660Z,5.90
2019-05-25T07:31:58.369Z,8.73
2019-05-25T07:34:24.968Z,7.77
2019-05-25T07:36:51.680Z,11.67
2019-05-25T07:39:18.256Z,7.87
2019-05-25T07:41:44.885Z,7.73
2019-05-25T07:44:11.828Z,7.13
2019-05-25T07:46:38.687Z,6.10
2019-05-25T07:49:05.516Z,9.20
2019-05-25T07:51:32.217Z,8.40
2019-05-25T07:53:58.897Z,6.70
2019-05-25T07:56:25.495Z,6.10
2019-05-25T07:58:52.212Z,7.00
2019-05-25T08:01:19.053Z,12.63
2019-05-25T08:03:45.742Z,6.33
2019-05-25T08:06:12.434Z,9.00
2019-05-25T08:08:39.043Z,9.37
2019-05-25T08:11:05.948Z,4.60
2019-05-25T08:13:32.623Z,6.00
2019-05-25T08:15:59.285Z,7.47
2019-05-25T08:18:26.276Z,5.80
2019-05-25T08:20:53.043Z,7.97
2019-05-25T08:23:19.631Z,4.97
2019-05-25T08:25:46.506Z,8.33
2019-05-25T08:28:13.087Z,11.70
2019-05-25T08:30:39.710Z,10.03
2019-05-25T08:33:06.445Z,5.33
2019-05-25T08:35:33.513Z,10.23
2019-05-25T08:38:00.142Z,8.37
2019-05-25T08:40:27.140Z,8.10
2019-05-25T08:42:53.778Z,6.80
2019-05-25T08:45:20.584Z,6.73
2019-05-25T08:47:47.250Z,5.53
2019-05-25T08:50:14.372Z,7.03
2019-05-25T08:52:41.006Z,7.60
2019-05-25T08:55:07.953Z,9.23
2019-05-25T08:57:34.561Z,6.97
2019-05-25T09:00:01.381Z,8.27
2019-05-25T09:02:28.044Z,9.30
2019-05-25T09:04:54.680Z,11.33
2019-05-25T09:07:21.444Z,14.00
2019-05-25T09:09:48.051Z,6.97
2019-05-25T09:12:14.773Z,8.70
2019-05-25T09:14:41.476Z,7.40
2019-05-25T09:17:08.086Z,10.70
2019-05-25T09:19:34.682Z,9.17
2019-05-25T09:22:03.163Z,10.60
2019-05-25T09:24:29.831Z,10.97
2019-05-25T09:26:56.814Z,5.97
2019-05-25T09:29:23.576Z,5.47
2019-05-25T09:31:50.183Z,3.77
2019-05-25T09:34:16.859Z,8.90
2019-05-25T09:36:43.447Z,12.93
2019-05-25T09:39:10.048Z,5.63
2019-05-25T09:41:36.741Z,12.43
2019-05-25T09:44:03.850Z,9.70
2019-05-25T09:46:30.623Z,14.13
2019-05-25T09:48:57.484Z,8.13
2019-05-25T09:51:24.207Z,8.90
2019-05-25T09:53:50.841Z,8.13
2019-05-25T09:56:17.638Z,9.40
2019-05-25T09:58:44.259Z,8.30
2019-05-25T10:01:11.108Z,7.77
2019-05-25T10:03:37.951Z,7.00
2019-05-25T10:06:12.243Z,6.47
2019-05-25T10:08:33.288Z,5.23
2019-05-25T10:11:00.314Z,6.90
2019-05-25T10:13:28.057Z,6.03
2019-05-25T10:15:54.738Z,9.17
2019-05-25T10:18:21.446Z,7.97
2019-05-25T10:20:48.380Z,6.70
2019-05-25T10:23:14.979Z,8.30
2019-05-25T10:25:41.677Z,6.13
2019-05-25T10:28:08.315Z,5.13
2019-05-25T10:30:34.996Z,10.03
2019-05-25T10:33:01.682Z,5.50
2019-05-25T10:35:28.285Z,7.43
2019-05-25T10:37:54.930Z,9.20
2019-05-25T10:40:21.826Z,8.27
2019-05-25T10:42:48.547Z,5.27
2019-05-25T10:45:15.657Z,10.60
2019-05-25T10:47:42.510Z,7.40
2019-05-25T10:50:10.342Z,5.17
2019-05-25T10:52:37.181Z,5.77
2019-05-25T10:55:04.028Z,9.90
2019-05-25T10:57:30.744Z,4.63
2019-05-25T10:59:57.363Z,6.50
2019-05-25T11:02:24.024Z,6.37
2019-05-25T11:04:50.760Z,9.13
2019-05-25T11:07:17.829Z,5.50
2019-05-25T11:09:44.408Z,5.50
2019-05-25T11:12:11.022Z,5.90
2019-05-25T11:14:37.712Z,6.33
2019-05-25T11:17:04.311Z,8.80
2019-05-25T11:19:30.923Z,5.93
2019-05-25T11:21:57.679Z,10.47
2019-05-25T11:24:24.289Z,5.53
2019-05-25T11:26:50.897Z,6.50
2019-05-25T11:29:17.503Z,4.77
2019-05-25T11:31:54.024Z,5.10
2019-05-25T11:34:12.803Z,6.67
2019-05-25T11:36:39.960Z,6.47
2019-05-25T11:39:06.933Z,5.30
2019-05-25T11:41:33.549Z,5.50
2019-05-25T11:44:00.199Z,6.80
2019-05-25T11:46:27.213Z,4.17
2019-05-25T11:48:53.826Z,6.60
2019-05-25T11:51:20.420Z,7.30
2019-05-25T11:53:47.091Z,7.03
2019-05-25T11:56:13.709Z,11.40
2019-05-25T11:58:47.392Z,5.97
2019-05-25T12:01:09.136Z,8.27
2019-05-25T12:03:35.722Z,7.03
2019-05-25T12:06:02.491Z,8.60
2019-05-25T12:08:29.423Z,8.87
2019-05-25T12:10:56.012Z,5.83
2019-05-25T12:13:22.713Z,5.47
2019-05-25T12:15:49.617Z,6.57
2019-05-25T12:18:16.244Z,5.37
2019-05-25T12:20:42.943Z,12.70
2019-05-25T12:23:10.006Z,9.70
2019-05-25T12:25:36.756Z,7.10
2019-05-25T12:28:03.497Z,4.63
2019-05-25T12:30:40.337Z,11.57
2019-05-25T12:32:58.748Z,7.63
2019-05-25T12:35:25.381Z,4.27
2019-05-25T12:37:52.365Z,5.40
2019-05-25T12:40:19.981Z,4.80
2019-05-25T12:42:46.718Z,4.33
2019-05-25T12:45:14.525Z,5.93
2019-05-25T12:47:41.146Z,5.17
2019-05-25T12:50:07.977Z,6.60
2019-05-25T12:52:34.625Z,5.33
2019-05-25T12:55:01.213Z,7.40
2019-05-25T12:57:27.952Z,10.17
2019-05-25T12:59:54.645Z,6.67
2019-05-25T13:02:21.280Z,7.50
2019-05-25T13:04:47.937Z,13.40
2019-05-25T13:07:14.564Z,4.80
2019-05-25T13:09:41.205Z,9.60
2019-05-25T13:12:08.046Z,7.53
2019-05-25T13:14:34.945Z,9.13
2019-05-25T13:17:02.191Z,7.83
2019-05-25T13:19:28.924Z,7.30
2019-05-25T13:21:55.849Z,8.57
2019-05-25T13:24:22.572Z,5.13
2019-05-25T13:26:49.260Z,7.23
2019-05-25T13:29:15.944Z,5.57
2019-05-25T13:31:44.544Z,5.97
2019-05-25T13:34:11.238Z,6.50
2019-05-25T13:36:38.183Z,5.23
2019-05-25T13:39:05.402Z,7.03
2019-05-25T13:41:32.168Z,6.50
2019-05-25T13:43:58.851Z,5.20
2019-05-25T13:46:25.473Z,5.90
2019-05-25T13:48:52.172Z,10.63
2019-05-25T13:51:18.800Z,9.30
2019-05-25T13:53:45.438Z,5.37
2019-05-25T13:56:12.040Z,7.77
2019-05-25T13:58:39.303Z,8.57
2019-05-25T14:01:06.045Z,9.60
2019-05-25T14:03:32.713Z,12.30
2019-05-25T14:05:59.339Z,7.47
2019-05-25T14:08:26.036Z,7.30
2019-05-25T14:10:53.151Z,12.90
2019-05-25T14:13:19.770Z,10.50
2019-05-25T14:15:46.348Z,5.90
2019-05-25T14:18:13.069Z,9.40
2019-05-25T14:20:39.742Z,6.80
2019-05-25T14:23:06.353Z,9.20
2019-05-25T14:25:34.401Z,7.00
2019-05-25T14:28:01.018Z,7.80
2019-05-25T14:30:27.698Z,10.37
2019-05-25T14:32:54.439Z,8.50
2019-05-25T14:35:21.227Z,6.47
2019-05-25T14:37:47.907Z,7.50
2019-05-25T14:40:14.777Z,8.83
2019-05-25T14:42:41.396Z,9.07
2019-05-25T14:45:08.873Z,11.50
2019-05-25T14:47:35.471Z,9.93
2019-05-25T14:50:02.681Z,10.77
2019-05-25T14:52:29.380Z,13.60
2019-05-25T14:54:56.451Z,14.67
2019-05-25T14:57:24.236Z,12.27
2019-05-25T14:59:50.856Z,9.10
2019-05-25T15:02:18.523Z,17.67
2019-05-25T15:04:45.117Z,7.40
2019-05-25T15:07:11.793Z,7.53
2019-05-25T15:09:38.596Z,15.40
2019-05-25T15:12:05.286Z,10.77
2019-05-25T15:14:32.188Z,11.50
2019-05-25T15:16:59.250Z,11.40
2019-05-25T15:19:25.924Z,10.50
2019-05-25T15:21:52.863Z,13.57
2019-05-25T15:24:19.687Z,6.30
2019-05-25T15:26:46.333Z,7.03
2019-05-25T15:29:12.980Z,7.10
2019-05-25T15:31:39.655Z,6.20
2019-05-25T15:34:06.263Z,11.77
2019-05-25T15:36:32.871Z,8.83
2019-05-25T15:38:59.501Z,6.23
2019-05-25T15:41:26.076Z,7.83
2019-05-25T15:43:52.703Z,4.70
2019-05-25T15:46:19.324Z,6.07
2019-05-25T15:48:46.299Z,6.00
2019-05-25T15:51:13.155Z,5.90
2019-05-25T15:53:39.755Z,8.03
2019-05-25T15:56:06.352Z,10.70
2019-05-25T15:58:33.068Z,10.03
2019-05-25T16:01:02.216Z,13.37
2019-05-25T16:03:29.296Z,11.73
2019-05-25T16:05:56.022Z,13.80
2019-05-25T16:08:22.653Z,7.73
2019-05-25T16:10:49.266Z,17.77
2019-05-25T16:13:16.167Z,11.80
2019-05-25T16:15:43.877Z,13.47
2019-05-25T16:18:10.742Z,12.17
2019-05-25T16:20:37.524Z,8.63
2019-05-25T16:23:04.294Z,12.13
2019-05-25T16:25:31.005Z,10.10
2019-05-25T16:27:57.649Z,7.43
2019-05-25T16:30:24.413Z,6.80
2019-05-25T16:35:19.925Z,6.90
2019-05-25T16:37:46.750Z,6.37
2019-05-25T16:40:14.028Z,9.43
2019-05-25T16:42:41.260Z,8.93
2019-05-25T16:45:09.074Z,8.90
2019-05-25T16:47:35.680Z,7.70
2019-05-25T16:50:02.993Z,10.90
2019-05-25T16:52:29.851Z,6.77
2019-05-25T16:54:56.488Z,9.70
2019-05-25T16:57:23.398Z,13.60
2019-05-25T16:59:50.179Z,10.43
2019-05-25T17:02:16.891Z,7.90
2019-05-25T17:04:43.568Z,10.67
2019-05-25T17:07:10.239Z,8.23
2019-05-25T17:09:36.875Z,7.67
2019-05-25T17:12:03.739Z,15.67
2019-05-25T17:14:30.436Z,8.20
2019-05-25T17:16:57.109Z,8.37
2019-05-25T17:19:23.725Z,8.83
2019-05-25T17:21:50.332Z,9.00
2019-05-25T17:24:17.191Z,11.00
2019-05-25T17:26:44.268Z,8.27
2019-05-25T17:29:11.241Z,8.43
2019-05-25T17:31:38.014Z,7.50
2019-05-25T17:34:04.620Z,11.23
2019-05-25T17:36:31.335Z,5.93
2019-05-25T17:38:58.095Z,8.23
2019-05-25T17:43:53.376Z,10.63
2019-05-25T17:46:20.036Z,9.20
2019-05-25T17:48:46.708Z,5.63
2019-05-25T17:51:13.485Z,7.70
2019-05-25T17:53:40.829Z,11.43
2019-05-25T17:56:07.469Z,6.90
2019-05-25T17:58:34.059Z,8.00
2019-05-25T18:01:00.811Z,8.83
2019-05-25T18:03:27.558Z,7.97
2019-05-25T18:05:54.294Z,9.13
2019-05-25T18:08:21.026Z,10.53
2019-05-25T18:10:55.045Z,11.13
2019-05-25T18:13:16.481Z,12.37
2019-05-25T18:15:43.545Z,14.53
2019-05-25T18:18:10.275Z,8.10
2019-05-25T18:20:37.099Z,13.13
2019-05-25T18:23:04.038Z,11.23
2019-05-25T18:25:30.704Z,9.83
2019-05-25T18:27:57.341Z,12.00
2019-05-25T18:30:24.715Z,7.27
2019-05-25T18:32:51.315Z,10.77
2019-05-25T18:35:18.140Z,8.90
2019-05-25T18:37:44.769Z,9.87
2019-05-25T18:40:11.668Z,13.77
2019-05-25T18:42:38.271Z,11.30
2019-05-25T18:45:05.199Z,8.03
2019-05-25T18:47:32.105Z,7.90
2019-05-25T18:49:58.848Z,11.67
2019-05-25T18:52:25.651Z,15.77
2019-05-25T18:54:52.272Z,12.80
2019-05-25T18:57:19.064Z,8.37
2019-05-25T18:59:45.724Z,5.80
2019-05-25T19:02:12.672Z,14.53
2019-05-25T19:04:45.976Z,10.60
2019-05-25T19:07:08.407Z,10.27
2019-05-25T19:09:35.031Z,10.20
2019-05-25T19:12:01.701Z,11.60
2019-05-25T19:14:28.566Z,10.30
2019-05-25T19:16:55.262Z,16.47
2019-05-25T19:19:21.981Z,11.13
2019-05-25T19:21:48.736Z,9.27
2019-05-25T19:24:15.450Z,9.50
2019-05-25T19:26:42.111Z,9.40
2019-05-25T19:29:08.743Z,7.37
2019-05-25T19:31:36.078Z,9.40
2019-05-25T19:34:02.840Z,11.00
2019-05-25T19:36:29.484Z,7.60
2019-05-25T19:38:56.225Z,12.30
2019-05-25T19:41:22.880Z,10.17
2019-05-25T19:43:49.513Z,10.27
2019-05-25T19:46:16.178Z,10.70
2019-05-25T19:48:42.996Z,16.80
2019-05-25T19:51:09.638Z,10.90
2019-05-25T19:53:36.319Z,10.63
2019-05-25T19:56:03.130Z,16.13
2019-05-25T19:58:29.731Z,13.47
2019-05-25T20:00:56.323Z,10.53
2019-05-25T20:03:23.064Z,8.83
2019-05-25T20:05:49.983Z,11.73
2019-05-25T20:08:16.725Z,9.07
2019-05-25T20:10:43.335Z,13.20
2019-05-25T20:13:10.038Z,11.97
2019-05-25T20:15:36.677Z,9.90
2019-05-25T20:18:03.299Z,11.17
2019-05-25T20:20:31.101Z,9.67
2019-05-25T20:22:57.789Z,11.93
2019-05-25T20:25:24.449Z,11.80
2019-05-25T20:27:51.167Z,11.57
2019-05-25T20:30:18.244Z,13.30
2019-05-25T20:32:45.053Z,17.40
2019-05-25T20:35:12.277Z,17.20
2019-05-25T20:37:38.931Z,9.70
2019-05-25T20:40:07.158Z,12.10
2019-05-25T20:42:34.137Z,10.27
2019-05-25T20:45:00.970Z,17.30
2019-05-25T20:47:27.883Z,11.07
2019-05-25T20:49:54.629Z,8.53
2019-05-25T20:52:21.270Z,9.80
2019-05-25T20:54:47.900Z,9.27
2019-05-25T20:57:14.617Z,13.97
2019-05-25T20:59:41.274Z,19.17
2019-05-25T21:02:07.939Z,12.03
2019-05-25T21:04:34.759Z,11.50
2019-05-25T21:07:01.481Z,12.73
2019-05-25T21:09:28.124Z,12.43
2019-05-25T21:11:55.998Z,9.73
2019-05-25T21:14:23.181Z,14.93
2019-05-25T21:16:49.925Z,11.83
2019-05-25T21:19:16.632Z,15.03
2019-05-25T21:21:43.292Z,16.53
2019-05-25T21:24:29.678Z,14.70
2019-05-25T21:26:56.294Z,13.90
2019-05-25T21:29:22.896Z,11.73
2019-05-25T21:31:49.700Z,14.20
2019-05-25T21:34:16.412Z,14.07
2019-05-25T21:36:43.416Z,16.53
2019-05-25T21:39:10.313Z,10.87
2019-05-25T21:41:37.220Z,14.53
2019-05-25T21:44:03.835Z,14.03
2019-05-25T21:46:30.472Z,16.97
2019-05-25T21:48:57.435Z,14.57
2019-05-25T21:51:24.148Z,18.13
2019-05-25T21:53:51.170Z,21.93
2019-05-25T21:56:17.884Z,18.93
2019-05-25T21:58:44.504Z,16.47
2019-05-25T22:01:11.966Z,11.03
2019-05-25T22:03:38.615Z,21.43
2019-05-25T22:06:05.333Z,18.53
2019-05-25T22:08:32.012Z,16.47
2019-05-25T22:10:58.751Z,16.43
2019-05-25T22:13:28.874Z,17.97
2019-05-25T22:15:54.052Z,16.90
2019-05-25T22:18:20.668Z,16.70
2019-05-25T22:20:47.338Z,17.77
2019-05-25T22:23:14.036Z,15.10
2019-05-25T22:25:40.887Z,14.93
2019-05-25T22:28:07.641Z,15.53
2019-05-25T22:30:34.283Z,17.63
2019-05-25T22:33:01.310Z,10.50
2019-05-25T22:35:27.936Z,11.80
2019-05-25T22:37:54.580Z,12.17
2019-05-25T22:40:21.255Z,15.53
2019-05-25T22:42:47.877Z,15.37
2019-05-25T22:45:14.757Z,14.13
2019-05-25T22:47:41.554Z,16.93
2019-05-25T22:50:08.964Z,16.20
2019-05-25T22:52:35.786Z,14.97
2019-05-25T22:55:02.900Z,15.73
2019-05-25T22:57:29.558Z,12.77
2019-05-25T22:59:56.589Z,15.93
2019-05-25T23:02:23.393Z,16.33
2019-05-25T23:04:50.044Z,16.87
2019-05-25T23:07:16.899Z,16.40
2019-05-25T23:09:43.776Z,10.97
2019-05-25T23:12:10.549Z,20.10
2019-05-25T23:14:37.235Z,12.23
2019-05-25T23:17:04.283Z,14.10
2019-05-25T23:19:30.898Z,22.17
2019-05-25T23:21:57.633Z,17.37
2019-05-25T23:24:24.515Z,16.47
2019-05-25T23:26:51.326Z,13.27
2019-05-25T23:29:18.392Z,11.97
2019-05-25T23:31:45.005Z,11.50
2019-05-25T23:34:11.724Z,15.93
2019-05-25T23:36:38.832Z,13.53
2019-05-25T23:39:05.779Z,14.53
2019-05-25T23:41:34.321Z,11.30
2019-05-25T23:44:01.065Z,8.10
2019-05-25T23:46:27.822Z,10.90
2019-05-25T23:48:54.812Z,11.83
2019-05-25T23:51:21.420Z,10.00
2019-05-25T23:53:48.149Z,14.83
2019-05-25T23:56:14.748Z,10.53
2019-05-25T23:58:41.367Z,11.20
